sensor_id;sensor_type;location;lat;lon;timestamp;pressure;altitude;pressure_sealevel;temperature;humidity
21153;BME280;10734;44.792;20.482;2023-08-07T07:06:07;99542.41;;;22.40;nan
21153;BME280;10734;44.792;20.482;2023-08-07T07:08:35;99534.44;;;22.70;nan
21153;BME280;10734;44.792;20.482;2023-08-07T07:11:01;99534.28;;;23.11;nan
21153;BME280;10734;44.792;20.482;2023-08-07T07:15:55;99546.81;;;23.45;nan
21153;BME280;10734;44.792;20.482;2023-08-07T07:18:22;99542.22;;;23.37;nan
21153;BME280;10734;44.792;20.482;2023-08-07T07:20:56;99553.03;;;22.99;nan
21153;BME280;10734;44.792;20.482;2023-08-07T07:23:24;99540.84;;;23.10;nan
21153;BME280;10734;44.792;20.482;2023-08-07T07:25:51;98384.63;;;16.39;nan
21153;BME280;10734;44.792;20.482;2023-08-07T07:28:18;99530.88;;;23.63;nan
21153;BME280;10734;44.792;20.482;2023-08-07T07:33:11;99542.91;;;23.62;nan
21153;BME280;10734;44.792;20.482;2023-08-07T07:35:40;99549.22;;;23.71;nan
21153;BME280;10734;44.792;20.482;2023-08-07T07:38:07;99568.19;;;23.89;nan
21153;BME280;10734;44.792;20.482;2023-08-07T07:40:34;99566.44;;;24.11;nan
21153;BME280;10734;44.792;20.482;2023-08-07T07:47:55;99569.91;;;24.80;nan
21153;BME280;10734;44.792;20.482;2023-08-07T07:50:22;99543.31;;;24.87;nan
21153;BME280;10734;44.792;20.482;2023-08-07T07:52:48;99562.84;;;24.92;nan
21153;BME280;10734;44.792;20.482;2023-08-07T07:55:16;99560.50;;;24.60;nan
21153;BME280;10734;44.792;20.482;2023-08-07T07:57:42;99551.19;;;24.23;nan
21153;BME280;10734;44.792;20.482;2023-08-07T08:00:09;99558.63;;;24.37;nan
21153;BME280;10734;44.792;20.482;2023-08-07T08:02:36;99554.69;;;24.17;nan
21153;BME280;10734;44.792;20.482;2023-08-07T08:05:05;99559.44;;;24.23;nan
21153;BME280;10734;44.792;20.482;2023-08-07T08:07:32;99576.66;;;24.40;nan
21153;BME280;10734;44.792;20.482;2023-08-07T08:10:03;99562.47;;;24.51;nan
21153;BME280;10734;44.792;20.482;2023-08-07T08:12:31;99559.84;;;24.35;nan
21153;BME280;10734;44.792;20.482;2023-08-07T08:14:57;99554.34;;;24.35;nan
21153;BME280;10734;44.792;20.482;2023-08-07T08:17:24;99560.94;;;24.48;nan
21153;BME280;10734;44.792;20.482;2023-08-07T08:19:51;99563.44;;;24.35;nan
21153;BME280;10734;44.792;20.482;2023-08-07T08:22:18;99566.03;;;23.99;nan
21153;BME280;10734;44.792;20.482;2023-08-07T08:24:45;99558.91;;;24.04;nan
21153;BME280;10734;44.792;20.482;2023-08-07T08:27:14;98790.63;;;19.68;nan
21153;BME280;10734;44.792;20.482;2023-08-07T08:29:41;99559.97;;;24.41;nan
21153;BME280;10734;44.792;20.482;2023-08-07T08:32:08;99553.34;;;24.65;nan
21153;BME280;10734;44.792;20.482;2023-08-07T08:34:35;99553.47;;;24.87;nan
21153;BME280;10734;44.792;20.482;2023-08-07T08:37:02;99560.28;;;24.61;nan
21153;BME280;10734;44.792;20.482;2023-08-07T08:39:32;99562.41;;;24.36;nan
21153;BME280;10734;44.792;20.482;2023-08-07T08:44:26;99569.69;;;24.67;nan
21153;BME280;10734;44.792;20.482;2023-08-07T08:46:56;99541.91;;;25.42;nan
21153;BME280;10734;44.792;20.482;2023-08-07T08:49:28;99589.78;;;25.78;nan
21153;BME280;10734;44.792;20.482;2023-08-07T08:54:25;99559.28;;;26.29;nan
21153;BME280;10734;44.792;20.482;2023-08-07T08:56:53;99566.91;;;25.99;nan
21153;BME280;10734;44.792;20.482;2023-08-07T09:01:50;99563.25;;;25.55;nan
21153;BME280;10734;44.792;20.482;2023-08-07T09:04:18;99567.78;;;25.27;nan
21153;BME280;10734;44.792;20.482;2023-08-07T09:06:45;99570.09;;;24.93;nan
21153;BME280;10734;44.792;20.482;2023-08-07T09:09:14;99562.66;;;24.79;nan
21153;BME280;10734;44.792;20.482;2023-08-07T09:11:42;99558.78;;;25.18;nan
21153;BME280;10734;44.792;20.482;2023-08-07T09:14:11;99555.72;;;25.13;nan
21153;BME280;10734;44.792;20.482;2023-08-07T09:16:43;99564.19;;;24.82;nan
21153;BME280;10734;44.792;20.482;2023-08-07T09:19:10;99554.00;;;25.27;nan
21153;BME280;10734;44.792;20.482;2023-08-07T09:21:37;99553.91;;;25.78;nan
21153;BME280;10734;44.792;20.482;2023-08-07T09:24:04;99551.66;;;26.03;nan
21153;BME280;10734;44.792;20.482;2023-08-07T09:26:32;99549.69;;;25.97;nan
21153;BME280;10734;44.792;20.482;2023-08-07T09:31:27;99542.78;;;26.57;nan
21153;BME280;10734;44.792;20.482;2023-08-07T09:34:03;99542.69;;;26.78;nan
21153;BME280;10734;44.792;20.482;2023-08-07T09:36:32;99562.81;;;26.44;nan
21153;BME280;10734;44.792;20.482;2023-08-07T09:39:03;99555.41;;;26.16;nan
21153;BME280;10734;44.792;20.482;2023-08-07T09:41:30;99567.25;;;25.89;nan
21153;BME280;10734;44.792;20.482;2023-08-07T09:43:57;99554.75;;;25.93;nan
21153;BME280;10734;44.792;20.482;2023-08-07T09:46:27;99552.97;;;26.35;nan
21153;BME280;10734;44.792;20.482;2023-08-07T09:48:57;99571.00;;;26.31;nan
21153;BME280;10734;44.792;20.482;2023-08-07T09:51:24;99567.63;;;26.57;nan
21153;BME280;10734;44.792;20.482;2023-08-07T09:53:54;99568.28;;;25.88;nan
21153;BME280;10734;44.792;20.482;2023-08-07T09:56:21;99571.06;;;25.52;nan
21153;BME280;10734;44.792;20.482;2023-08-07T09:58:48;99568.84;;;25.62;nan
21153;BME280;10734;44.792;20.482;2023-08-07T10:01:16;99565.41;;;25.23;nan
21153;BME280;10734;44.792;20.482;2023-08-07T10:03:43;99563.81;;;25.14;nan
21153;BME280;10734;44.792;20.482;2023-08-07T10:06:11;99565.59;;;25.07;nan
21153;BME280;10734;44.792;20.482;2023-08-07T10:11:08;99574.72;;;24.78;nan
21153;BME280;10734;44.792;20.482;2023-08-07T10:13:40;99591.31;;;24.55;nan
21153;BME280;10734;44.792;20.482;2023-08-07T10:56:09;99572.56;;;25.18;nan
21153;BME280;10734;44.792;20.482;2023-08-07T10:58:38;99565.97;;;25.91;nan
21153;BME280;10734;44.792;20.482;2023-08-07T11:03:57;99545.53;;;26.92;nan
21153;BME280;10734;44.792;20.482;2023-08-07T11:06:27;99608.84;;;27.21;nan
21153;BME280;10734;44.792;20.482;2023-08-07T11:08:55;99565.19;;;27.65;nan
21153;BME280;10734;44.792;20.482;2023-08-07T11:11:24;99557.63;;;28.13;nan
21153;BME280;10734;44.792;20.482;2023-08-07T11:13:56;99563.59;;;28.63;nan
21153;BME280;10734;44.792;20.482;2023-08-07T11:16:24;99558.66;;;28.85;nan
21153;BME280;10734;44.792;20.482;2023-08-07T11:18:51;99554.44;;;28.63;nan
21153;BME280;10734;44.792;20.482;2023-08-07T11:21:18;99544.44;;;28.48;nan
21153;BME280;10734;44.792;20.482;2023-08-07T11:23:45;99543.50;;;28.94;nan
21153;BME280;10734;44.792;20.482;2023-08-07T11:26:12;99540.13;;;28.72;nan
21153;BME280;10734;44.792;20.482;2023-08-07T11:28:41;99539.25;;;29.43;nan
21153;BME280;10734;44.792;20.482;2023-08-07T11:31:07;99539.22;;;29.88;nan
21153;BME280;10734;44.792;20.482;2023-08-07T11:33:35;99539.09;;;30.58;nan
21153;BME280;10734;44.792;20.482;2023-08-07T11:36:03;99533.75;;;30.82;nan
21153;BME280;10734;44.792;20.482;2023-08-07T11:38:40;99534.66;;;31.49;nan
21153;BME280;10734;44.792;20.482;2023-08-07T11:41:10;99524.63;;;30.93;nan
21153;BME280;10734;44.792;20.482;2023-08-07T11:43:40;99528.44;;;30.55;nan
21153;BME280;10734;44.792;20.482;2023-08-07T11:46:09;99520.84;;;30.44;nan
21153;BME280;10734;44.792;20.482;2023-08-07T11:48:37;99524.91;;;30.23;nan
21153;BME280;10734;44.792;20.482;2023-08-07T11:51:05;99514.38;;;30.00;nan
21153;BME280;10734;44.792;20.482;2023-08-07T11:53:36;99512.38;;;30.07;nan
21153;BME280;10734;44.792;20.482;2023-08-07T11:56:05;99511.88;;;30.85;nan
21153;BME280;10734;44.792;20.482;2023-08-07T11:58:36;99512.19;;;31.63;nan
21153;BME280;10734;44.792;20.482;2023-08-07T12:01:10;99510.66;;;31.78;nan
21153;BME280;10734;44.792;20.482;2023-08-07T12:03:41;99510.53;;;31.73;nan
21153;BME280;10734;44.792;20.482;2023-08-07T12:06:09;99512.09;;;32.23;nan
21153;BME280;10734;44.792;20.482;2023-08-07T12:08:37;99510.56;;;31.06;nan
21153;BME280;10734;44.792;20.482;2023-08-07T12:11:14;99509.19;;;30.79;nan
21153;BME280;10734;44.792;20.482;2023-08-07T12:13:42;99505.97;;;30.57;nan
21153;BME280;10734;44.792;20.482;2023-08-07T12:16:09;99509.13;;;30.60;nan
21153;BME280;10734;44.792;20.482;2023-08-07T12:18:37;99509.94;;;30.24;nan
21153;BME280;10734;44.792;20.482;2023-08-07T12:21:07;99511.41;;;29.70;nan
21153;BME280;10734;44.792;20.482;2023-08-07T12:23:35;99507.66;;;28.93;nan
21153;BME280;10734;44.792;20.482;2023-08-07T12:26:03;99519.06;;;28.58;nan
21153;BME280;10734;44.792;20.482;2023-08-07T12:28:33;99514.41;;;28.39;nan
21153;BME280;10734;44.792;20.482;2023-08-07T12:31:12;99513.13;;;28.41;nan
21153;BME280;10734;44.792;20.482;2023-08-07T12:33:39;99511.44;;;28.40;nan
21153;BME280;10734;44.792;20.482;2023-08-07T12:36:06;99508.00;;;27.85;nan
21153;BME280;10734;44.792;20.482;2023-08-07T12:38:45;99510.75;;;27.85;nan
21153;BME280;10734;44.792;20.482;2023-08-07T12:41:13;99501.34;;;27.59;nan
21153;BME280;10734;44.792;20.482;2023-08-07T12:43:43;99508.66;;;27.80;nan
21153;BME280;10734;44.792;20.482;2023-08-07T12:46:10;99506.06;;;27.72;nan
21153;BME280;10734;44.792;20.482;2023-08-07T12:48:39;99503.31;;;28.25;nan
21153;BME280;10734;44.792;20.482;2023-08-07T12:51:06;99517.28;;;28.84;nan
21153;BME280;10734;44.792;20.482;2023-08-07T12:53:37;99512.88;;;28.56;nan
21153;BME280;10734;44.792;20.482;2023-08-07T12:56:04;99508.44;;;28.22;nan
21153;BME280;10734;44.792;20.482;2023-08-07T12:58:32;99502.69;;;28.17;nan
21153;BME280;10734;44.792;20.482;2023-08-07T13:01:10;99507.81;;;27.87;nan
21153;BME280;10734;44.792;20.482;2023-08-07T13:03:38;99494.75;;;27.67;nan
21153;BME280;10734;44.792;20.482;2023-08-07T13:06:05;99505.69;;;27.82;nan
21153;BME280;10734;44.792;20.482;2023-08-07T13:08:35;99506.31;;;28.11;nan
21153;BME280;10734;44.792;20.482;2023-08-07T13:11:02;99504.41;;;28.44;nan
21153;BME280;10734;44.792;20.482;2023-08-07T13:13:28;99505.34;;;29.41;nan
21153;BME280;10734;44.792;20.482;2023-08-07T13:15:57;99504.13;;;30.01;nan
21153;BME280;10734;44.792;20.482;2023-08-07T13:18:24;99500.78;;;30.42;nan
21153;BME280;10734;44.792;20.482;2023-08-07T13:20:51;99496.75;;;31.00;nan
21153;BME280;10734;44.792;20.482;2023-08-07T13:23:18;99492.56;;;30.91;nan
21153;BME280;10734;44.792;20.482;2023-08-07T13:25:44;99493.47;;;31.40;nan
21153;BME280;10734;44.792;20.482;2023-08-07T13:28:11;99490.63;;;31.09;nan
21153;BME280;10734;44.792;20.482;2023-08-07T13:30:38;99485.84;;;30.18;nan
21153;BME280;10734;44.792;20.482;2023-08-07T13:33:05;99500.16;;;29.52;nan
21153;BME280;10734;44.792;20.482;2023-08-07T13:35:32;99502.78;;;29.40;nan
21153;BME280;10734;44.792;20.482;2023-08-07T13:37:59;99501.19;;;29.26;nan
21153;BME280;10734;44.792;20.482;2023-08-07T13:40:26;99496.13;;;29.09;nan
21153;BME280;10734;44.792;20.482;2023-08-07T13:42:53;99501.78;;;28.69;nan
21153;BME280;10734;44.792;20.482;2023-08-07T13:45:20;99493.72;;;28.35;nan
21153;BME280;10734;44.792;20.482;2023-08-07T13:47:47;99489.47;;;28.12;nan
21153;BME280;10734;44.792;20.482;2023-08-07T13:50:14;99498.19;;;27.69;nan
21153;BME280;10734;44.792;20.482;2023-08-07T13:52:41;99497.31;;;27.49;nan
21153;BME280;10734;44.792;20.482;2023-08-07T13:55:08;99497.25;;;27.29;nan
21153;BME280;10734;44.792;20.482;2023-08-07T13:57:55;99501.47;;;27.18;nan
21153;BME280;10734;44.792;20.482;2023-08-07T14:00:22;99498.84;;;27.10;nan
21153;BME280;10734;44.792;20.482;2023-08-07T14:02:49;99486.75;;;26.70;nan
21153;BME280;10734;44.792;20.482;2023-08-07T14:05:15;99493.75;;;26.65;nan
21153;BME280;10734;44.792;20.482;2023-08-07T14:07:42;99490.25;;;26.85;nan
21153;BME280;10734;44.792;20.482;2023-08-07T14:10:09;99500.66;;;26.89;nan
21153;BME280;10734;44.792;20.482;2023-08-07T14:12:36;99499.59;;;26.84;nan
21153;BME280;10734;44.792;20.482;2023-08-07T14:15:03;99491.34;;;26.91;nan
21153;BME280;10734;44.792;20.482;2023-08-07T14:17:30;99487.41;;;26.72;nan
21153;BME280;10734;44.792;20.482;2023-08-07T14:19:57;99488.00;;;26.60;nan
21153;BME280;10734;44.792;20.482;2023-08-07T14:22:24;99484.16;;;26.61;nan
21153;BME280;10734;44.792;20.482;2023-08-07T14:24:51;99489.31;;;26.36;nan
21153;BME280;10734;44.792;20.482;2023-08-07T14:27:18;99480.09;;;26.23;nan
21153;BME280;10734;44.792;20.482;2023-08-07T14:29:45;99488.22;;;26.03;nan
21153;BME280;10734;44.792;20.482;2023-08-07T14:32:11;99490.41;;;25.86;nan
21153;BME280;10734;44.792;20.482;2023-08-07T14:34:38;99493.72;;;25.81;nan
21153;BME280;10734;44.792;20.482;2023-08-07T14:37:05;99502.91;;;25.67;nan
21153;BME280;10734;44.792;20.482;2023-08-07T14:39:32;99519.84;;;25.42;nan
21153;BME280;10734;44.792;20.482;2023-08-07T14:41:58;99537.41;;;24.75;nan
21153;BME280;10734;44.792;20.482;2023-08-07T14:44:25;99536.47;;;23.78;nan
